Time;durP1;ratioP1;P1;durP2;ratioP2;P2;SDS_P1;SDS_P2;PMS_P1;PMS_P2;Temp;Humidity;BMP_temperature;BMP_pressure;BME280_temperature;BME280_humidity;BME280_pressure;Samples;Min_cycle;Max_cycle;Signal;HPM_P1;HPM_P2
2023/08/25 00:01:10;;;;;;;;;8.75;8.75;;;;;;;;5036276;28;46296;-77
2023/08/25 00:03:36;;;;;;;;;11.00;10.25;;;;;;;;5036726;28;45554;-76
2023/08/25 00:06:01;;;;;;;;;13.00;10.00;;;;;;;;5054100;28;45477;-75
2023/08/25 00:08:27;;;;;;;;;9.75;7.75;;;;;;;;5055766;28;45837;-77
2023/08/25 00:10:52;;;;;;;;;11.25;10.25;;;;;;;;5054633;28;45969;-76
2023/08/25 00:13:17;;;;;;;;;9.50;8.50;;;;;;;;5054919;28;45461;-77
2023/08/25 00:15:44;;;;;;;;;7.25;7.25;;;;;;;;5036151;28;45887;-76
2023/08/25 00:18:09;;;;;;;;;8.25;8.00;;;;;;;;5045028;28;45713;-79
2023/08/25 00:20:36;;;;;;;;;9.75;9.25;;;;;;;;5052249;28;45809;-78
2023/08/25 00:23:02;;;;;;;;;12.75;10.25;;;;;;;;5039934;28;45650;-83
2023/08/25 00:25:27;;;;;;;;;11.25;9.50;;;;;;;;5035823;28;46059;-77
2023/08/25 00:27:53;;;;;;;;;6.75;6.75;;;;;;;;5033476;28;47426;-76
2023/08/25 00:30:18;;;;;;;;;10.50;10.50;;;;;;;;5045222;28;45844;-77
2023/08/25 00:32:43;;;;;;;;;10.75;10.75;;;;;;;;5031069;28;45517;-77
2023/08/25 00:35:08;;;;;;;;;8.25;8.25;;;;;;;;5053922;28;45514;-78
2023/08/25 00:37:34;;;;;;;;;7.00;4.25;;;;;;;;5053860;28;45515;-77
2023/08/25 00:39:59;;;;;;;;;11.00;8.75;;;;;;;;5053991;28;45651;-77
2023/08/25 00:42:24;;;;;;;;;11.25;10.00;;;;;;;;5053596;28;45332;-76
2023/08/25 00:44:49;;;;;;;;;10.50;9.00;;;;;;;;5054100;28;45365;-75
2023/08/25 00:47:14;;;;;;;;;8.75;8.75;;;;;;;;5054404;28;45427;-77
2023/08/25 00:49:40;;;;;;;;;11.75;10.00;;;;;;;;5035251;28;45570;-78
2023/08/25 00:52:05;;;;;;;;;11.75;11.00;;;;;;;;5053925;28;45926;-77
2023/08/25 00:54:34;;;;;;;;;11.00;10.00;;;;;;;;5053706;28;45418;-76
2023/08/25 00:56:59;;;;;;;;;10.00;8.75;;;;;;;;5035915;28;46403;-79
2023/08/25 00:59:25;;;;;;;;;12.75;10.00;;;;;;;;5053934;28;45476;-79
2023/08/25 01:01:50;;;;;;;;;9.50;8.75;;;;;;;;5068025;28;45441;-78
2023/08/25 01:04:15;;;;;;;;;10.00;9.75;;;;;;;;5036635;28;46277;-79
2023/08/25 01:06:41;;;;;;;;;15.50;11.50;;;;;;;;5035700;28;47457;-78
2023/08/25 01:09:07;;;;;;;;;19.25;13.25;;;;;;;;5051155;28;45673;-77
2023/08/25 01:11:51;;;;;;;;;8.50;8.50;;;;;;;;5052137;28;45706;-77
2023/08/25 01:14:16;;;;;;;;;11.50;11.50;;;;;;;;5040862;28;45423;-76
2023/08/25 01:16:52;;;;;;;;;12.25;10.75;;;;;;;;5052692;28;45904;-76
2023/08/25 01:19:41;;;;;;;;;10.50;9.50;;;;;;;;5033934;28;45539;-77
2023/08/25 01:22:12;;;;;;;;;13.00;10.50;;;;;;;;5035495;28;45506;-75
2023/08/25 01:24:39;;;;;;;;;14.75;12.25;;;;;;;;5049151;28;45437;-78
2023/08/25 01:27:05;;;;;;;;;11.25;11.25;;;;;;;;5051135;28;45742;-76
2023/08/25 01:29:30;;;;;;;;;13.75;11.00;;;;;;;;5034345;28;45797;-76
2023/08/25 01:31:56;;;;;;;;;11.50;11.50;;;;;;;;5035141;28;45495;-76
2023/08/25 01:34:24;;;;;;;;;14.50;13.50;;;;;;;;5035476;28;46132;-76
2023/08/25 01:36:53;;;;;;;;;10.50;10.00;;;;;;;;5034182;28;47058;-75
2023/08/25 01:39:18;;;;;;;;;8.75;8.75;;;;;;;;5035018;28;45877;-76
2023/08/25 01:41:49;;;;;;;;;11.00;10.00;;;;;;;;5041763;28;45483;-78
2023/08/25 01:44:16;;;;;;;;;6.00;6.00;;;;;;;;5053612;28;45610;-76
2023/08/25 01:46:47;;;;;;;;;8.25;8.25;;;;;;;;5034980;28;46135;-76
2023/08/25 01:49:16;;;;;;;;;11.50;9.75;;;;;;;;5053313;28;45439;-78
2023/08/25 01:51:41;;;;;;;;;10.00;9.25;;;;;;;;5033509;28;45508;-76
2023/08/25 01:54:07;;;;;;;;;9.00;9.00;;;;;;;;5048403;28;45597;-76
2023/08/25 01:56:32;;;;;;;;;10.50;9.50;;;;;;;;5045317;28;45544;-77
2023/08/25 01:58:57;;;;;;;;;11.25;7.25;;;;;;;;5048891;28;45735;-81
2023/08/25 02:01:22;;;;;;;;;10.25;10.00;;;;;;;;5054766;28;45934;-80
2023/08/25 02:03:48;;;;;;;;;10.50;9.75;;;;;;;;5054154;28;45431;-80
2023/08/25 02:06:13;;;;;;;;;10.00;9.25;;;;;;;;5033893;28;47209;-80
2023/08/25 02:08:38;;;;;;;;;10.25;10.00;;;;;;;;5050067;28;45739;-81
2023/08/25 02:11:04;;;;;;;;;11.25;9.25;;;;;;;;5055740;28;45823;-80
2023/08/25 02:13:29;;;;;;;;;9.00;9.00;;;;;;;;5055682;28;45637;-80
2023/08/25 02:15:54;;;;;;;;;11.00;10.50;;;;;;;;5026660;28;46992;-80
2023/08/25 02:18:20;;;;;;;;;16.75;11.50;;;;;;;;5031447;28;46392;-79
2023/08/25 02:20:45;;;;;;;;;16.00;16.00;;;;;;;;5053729;28;45546;-80
2023/08/25 02:23:10;;;;;;;;;13.50;11.50;;;;;;;;5056899;28;45321;-79
2023/08/25 02:25:36;;;;;;;;;16.50;16.00;;;;;;;;5037678;28;47083;-81
2023/08/25 02:28:01;;;;;;;;;17.50;16.50;;;;;;;;5043468;28;45857;-81
2023/08/25 02:30:27;;;;;;;;;14.75;14.75;;;;;;;;5040431;28;45519;-79
2023/08/25 02:32:52;;;;;;;;;20.50;18.00;;;;;;;;5051801;28;45377;-80
2023/08/25 02:35:17;;;;;;;;;14.50;13.75;;;;;;;;5039355;28;48495;-81
2023/08/25 02:38:15;;;;;;;;;13.50;13.00;;;;;;;;5050641;28;45695;-82
2023/08/25 02:40:40;;;;;;;;;17.00;17.00;;;;;;;;5015994;28;45467;-82
2023/08/25 02:43:07;;;;;;;;;16.50;15.50;;;;;;;;5058819;28;45936;-82
2023/08/25 02:45:32;;;;;;;;;17.50;17.50;;;;;;;;5043302;28;47335;-81
2023/08/25 02:47:58;;;;;;;;;17.00;14.75;;;;;;;;5065183;28;45442;-82
2023/08/25 02:50:24;;;;;;;;;18.50;15.25;;;;;;;;5072067;28;45414;-83
2023/08/25 02:52:49;;;;;;;;;13.75;12.25;;;;;;;;5051134;28;45387;-81
2023/08/25 02:55:16;;;;;;;;;15.25;15.25;;;;;;;;5052848;28;46141;-81
2023/08/25 02:57:42;;;;;;;;;14.50;13.25;;;;;;;;5040824;28;45431;-85
2023/08/25 03:00:08;;;;;;;;;15.00;14.00;;;;;;;;5040767;28;45443;-81
2023/08/25 03:02:34;;;;;;;;;14.00;13.50;;;;;;;;5053156;28;46186;-82
2023/08/25 03:04:59;;;;;;;;;16.50;15.50;;;;;;;;5059791;28;45488;-84
2023/08/25 03:07:24;;;;;;;;;15.00;15.00;;;;;;;;5051496;28;45533;-81
2023/08/25 03:09:50;;;;;;;;;16.75;14.25;;;;;;;;5032422;28;45317;-80
2023/08/25 03:12:15;;;;;;;;;19.00;19.00;;;;;;;;5055440;28;45494;-80
2023/08/25 03:14:40;;;;;;;;;22.75;19.50;;;;;;;;5036478;28;46221;-81
2023/08/25 03:17:05;;;;;;;;;23.67;21.67;;;;;;;;5053967;28;45375;-82
2023/08/25 03:19:30;;;;;;;;;18.33;18.33;;;;;;;;5055307;28;45428;-81
2023/08/25 03:21:56;;;;;;;;;22.67;19.67;;;;;;;;5054108;28;45839;-81
2023/08/25 03:24:21;;;;;;;;;19.33;17.67;;;;;;;;5036113;28;48263;-80
2023/08/25 03:26:46;;;;;;;;;29.67;26.00;;;;;;;;5034221;28;45578;-83
2023/08/25 03:29:11;;;;;;;;;33.67;28.00;;;;;;;;5057172;28;44872;-82
2023/08/25 03:31:38;;;;;;;;;36.33;33.00;;;;;;;;5057652;28;45810;-82
2023/08/25 03:34:03;;;;;;;;;33.00;29.33;;;;;;;;5060120;28;46403;-82
2023/08/25 03:36:30;;;;;;;;;35.33;30.00;;;;;;;;5033439;28;45396;-83
2023/08/25 03:38:55;;;;;;;;;37.33;31.33;;;;;;;;5039171;28;45395;-82
2023/08/25 03:41:20;;;;;;;;;33.00;29.33;;;;;;;;5038168;28;45846;-80
2023/08/25 03:43:45;;;;;;;;;42.33;35.67;;;;;;;;5028634;28;47298;-81
2023/08/25 03:46:11;;;;;;;;;34.33;31.67;;;;;;;;5038621;28;45609;-82
2023/08/25 03:48:36;;;;;;;;;38.33;33.67;;;;;;;;5040471;28;45740;-81
2023/08/25 03:51:01;;;;;;;;;38.33;34.67;;;;;;;;5038165;28;46124;-80
2023/08/25 03:53:27;;;;;;;;;33.67;30.00;;;;;;;;5049529;28;46412;-81
2023/08/25 03:55:52;;;;;;;;;39.00;33.67;;;;;;;;5036237;28;45747;-81
2023/08/25 03:58:17;;;;;;;;;37.33;34.33;;;;;;;;5052146;28;45449;-82
2023/08/25 04:00:42;;;;;;;;;42.33;33.67;;;;;;;;5033412;28;45784;-81
2023/08/25 04:03:08;;;;;;;;;47.00;34.33;;;;;;;;5060079;28;45495;-84
2023/08/25 04:05:33;;;;;;;;;47.67;36.00;;;;;;;;5047392;28;45384;-82
2023/08/25 04:07:58;;;;;;;;;38.33;33.33;;;;;;;;5039200;28;45338;-81
2023/08/25 04:10:24;;;;;;;;;50.33;38.67;;;;;;;;5037598;28;45740;-82
2023/08/25 04:12:49;;;;;;;;;38.67;34.33;;;;;;;;5049200;28;46493;-81
2023/08/25 04:15:14;;;;;;;;;43.33;37.33;;;;;;;;5055365;28;45346;-82
2023/08/25 04:17:39;;;;;;;;;38.67;34.00;;;;;;;;5038648;28;45364;-81
2023/08/25 04:20:05;;;;;;;;;34.33;32.33;;;;;;;;5039476;28;46451;-82
2023/08/25 04:22:30;;;;;;;;;38.67;36.00;;;;;;;;5038859;28;46796;-81
2023/08/25 04:24:55;;;;;;;;;37.00;33.33;;;;;;;;5056987;28;45805;-81
2023/08/25 04:27:20;;;;;;;;;43.67;34.33;;;;;;;;5039231;28;45710;-80
2023/08/25 04:29:46;;;;;;;;;38.67;34.00;;;;;;;;5053105;28;45830;-80
2023/08/25 04:32:11;;;;;;;;;41.67;34.67;;;;;;;;5027967;28;47080;-78
2023/08/25 04:34:36;;;;;;;;;34.33;31.33;;;;;;;;5072856;28;45139;-79
2023/08/25 04:37:02;;;;;;;;;31.33;31.33;;;;;;;;5063806;28;45616;-75
2023/08/25 04:39:28;;;;;;;;;48.67;38.33;;;;;;;;5035302;28;45892;-81
2023/08/25 04:41:54;;;;;;;;;46.00;37.67;;;;;;;;5056335;28;46282;-80
2023/08/25 04:44:19;;;;;;;;;42.00;36.33;;;;;;;;5048670;28;45368;-82
2023/08/25 04:46:44;;;;;;;;;49.00;39.00;;;;;;;;5056055;28;45437;-79
2023/08/25 04:49:10;;;;;;;;;49.33;38.33;;;;;;;;5055964;28;45556;-81
2023/08/25 04:51:36;;;;;;;;;45.00;37.67;;;;;;;;5055408;28;46213;-84
2023/08/25 04:54:02;;;;;;;;;42.67;35.00;;;;;;;;5036299;28;45967;-83
2023/08/25 04:56:27;;;;;;;;;50.67;38.67;;;;;;;;5037308;28;45584;-81
2023/08/25 04:58:53;;;;;;;;;36.67;34.33;;;;;;;;5054301;28;45591;-81
2023/08/25 05:01:18;;;;;;;;;39.67;33.33;;;;;;;;5029464;28;46818;-80
2023/08/25 05:03:44;;;;;;;;;46.67;36.67;;;;;;;;5049836;28;45473;-82
2023/08/25 05:06:10;;;;;;;;;45.67;38.00;;;;;;;;5051892;28;45817;-81
2023/08/25 05:08:35;;;;;;;;;53.33;40.67;;;;;;;;5067978;28;45438;-80
2023/08/25 05:11:00;;;;;;;;;44.67;37.67;;;;;;;;5035667;28;47184;-81
2023/08/25 05:13:25;;;;;;;;;48.00;36.33;;;;;;;;5053922;28;44781;-81
2023/08/25 05:15:51;;;;;;;;;40.67;37.00;;;;;;;;5054309;28;45708;-80
2023/08/25 05:18:16;;;;;;;;;49.00;40.00;;;;;;;;5053738;28;45329;-81
2023/08/25 05:20:41;;;;;;;;;44.00;38.00;;;;;;;;5072442;28;45222;-80
2023/08/25 05:23:06;;;;;;;;;48.67;37.33;;;;;;;;5050041;28;45268;-81
2023/08/25 05:25:32;;;;;;;;;35.67;30.67;;;;;;;;5067915;28;45746;-82
2023/08/25 05:27:57;;;;;;;;;43.33;35.33;;;;;;;;5053309;28;45978;-80
2023/08/25 05:30:22;;;;;;;;;38.00;34.67;;;;;;;;5040453;28;47153;-80
2023/08/25 05:32:49;;;;;;;;;48.00;38.00;;;;;;;;5054482;28;45395;-81
2023/08/25 05:35:14;;;;;;;;;43.00;35.00;;;;;;;;5052910;28;45830;-80
2023/08/25 05:37:40;;;;;;;;;35.00;32.67;;;;;;;;5065803;28;44737;-81
2023/08/25 05:40:07;;;;;;;;;38.67;34.33;;;;;;;;5057870;28;46743;-82
2023/08/25 05:42:33;;;;;;;;;43.33;33.33;;;;;;;;5071261;28;45420;-81
2023/08/25 05:44:58;;;;;;;;;46.33;34.00;;;;;;;;5070914;28;44823;-81
2023/08/25 05:47:24;;;;;;;;;38.00;32.00;;;;;;;;5071239;28;45042;-81
2023/08/25 05:49:49;;;;;;;;;47.33;34.33;;;;;;;;5066446;28;45363;-80
2023/08/25 05:52:14;;;;;;;;;39.67;34.33;;;;;;;;5056773;28;45395;-80
2023/08/25 05:54:39;;;;;;;;;35.33;32.67;;;;;;;;5019911;28;45342;-80
2023/08/25 05:57:05;;;;;;;;;37.67;34.33;;;;;;;;5033149;28;45897;-80
2023/08/25 05:59:32;;;;;;;;;39.33;32.00;;;;;;;;5044940;28;45428;-81
2023/08/25 06:01:57;;;;;;;;;36.67;34.00;;;;;;;;5032632;28;45651;-81
2023/08/25 06:04:22;;;;;;;;;34.00;31.00;;;;;;;;5055898;28;45473;-81
2023/08/25 06:06:47;;;;;;;;;38.33;34.33;;;;;;;;5037602;28;46136;-81
2023/08/25 06:09:13;;;;;;;;;33.67;30.67;;;;;;;;5056443;28;45602;-81
2023/08/25 06:11:38;;;;;;;;;37.67;32.67;;;;;;;;5039640;28;45583;-80
2023/08/25 06:14:03;;;;;;;;;38.00;33.67;;;;;;;;5056771;28;45858;-80
2023/08/25 06:16:28;;;;;;;;;39.67;34.33;;;;;;;;5036568;28;45936;-79
2023/08/25 06:18:54;;;;;;;;;37.00;32.33;;;;;;;;5032665;28;47610;-81
2023/08/25 06:21:19;;;;;;;;;33.67;29.33;;;;;;;;5027833;28;45542;-74
2023/08/25 06:23:44;;;;;;;;;38.00;32.33;;;;;;;;5048408;28;45948;-75
2023/08/25 06:26:09;;;;;;;;;35.33;30.00;;;;;;;;5040437;28;46154;-75
2023/08/25 06:28:35;;;;;;;;;32.33;25.33;;;;;;;;5057535;28;45389;-74
2023/08/25 06:31:01;;;;;;;;;31.33;29.00;;;;;;;;5049665;28;45483;-75
2023/08/25 06:33:29;;;;;;;;;27.67;26.00;;;;;;;;5039090;28;45659;-76
2023/08/25 06:35:55;;;;;;;;;33.67;28.00;;;;;;;;5032806;28;46533;-76
2023/08/25 06:38:20;;;;;;;;;25.33;20.67;;;;;;;;5044703;28;45711;-77
2023/08/25 06:40:47;;;;;;;;;23.33;22.33;;;;;;;;5056007;28;45702;-75
2023/08/25 06:43:12;;;;;;;;;25.67;23.67;;;;;;;;5055618;28;45340;-77
2023/08/25 06:45:38;;;;;;;;;27.33;23.67;;;;;;;;5044042;28;45757;-77
2023/08/25 06:48:04;;;;;;;;;24.67;22.33;;;;;;;;5047054;28;46429;-75
2023/08/25 06:50:30;;;;;;;;;27.33;19.67;;;;;;;;5055926;28;45580;-76
2023/08/25 06:52:55;;;;;;;;;23.67;23.67;;;;;;;;5055409;28;45560;-76
2023/08/25 06:55:22;;;;;;;;;21.25;21.25;;;;;;;;5053247;28;45460;-76
2023/08/25 06:57:47;;;;;;;;;26.00;22.67;;;;;;;;5055308;28;45523;-75
2023/08/25 07:00:21;;;;;;;;;25.33;23.67;;;;;;;;5050189;28;45681;-87
2023/08/25 07:02:46;;;;;;;;;20.00;18.00;;;;;;;;5041440;28;45814;-75
2023/08/25 07:05:12;;;;;;;;;21.67;20.67;;;;;;;;5053179;28;45428;-76
2023/08/25 07:07:38;;;;;;;;;20.00;17.33;;;;;;;;5035060;28;47532;-77
2023/08/25 07:10:04;;;;;;;;;18.50;16.75;;;;;;;;5035742;28;45758;-78
2023/08/25 07:12:30;;;;;;;;;18.25;17.25;;;;;;;;5049176;28;45770;-76
2023/08/25 07:14:55;;;;;;;;;11.50;11.25;;;;;;;;5036024;28;46349;-76
2023/08/25 07:17:20;;;;;;;;;14.00;14.00;;;;;;;;5054659;28;45969;-76
2023/08/25 07:19:46;;;;;;;;;17.50;14.00;;;;;;;;5054862;28;45930;-77
2023/08/25 07:22:11;;;;;;;;;17.50;15.25;;;;;;;;5036241;28;45571;-77
2023/08/25 07:24:36;;;;;;;;;14.25;12.50;;;;;;;;5053956;28;45432;-76
2023/08/25 07:27:01;;;;;;;;;13.00;12.25;;;;;;;;5051843;28;47419;-77
2023/08/25 07:29:26;;;;;;;;;15.50;14.00;;;;;;;;5034858;28;45496;-76
2023/08/25 07:31:52;;;;;;;;;8.75;7.75;;;;;;;;5052436;28;45622;-75
2023/08/25 07:34:17;;;;;;;;;9.25;9.25;;;;;;;;5031406;28;45846;-76
2023/08/25 07:36:43;;;;;;;;;11.50;11.50;;;;;;;;5052181;28;45419;-76
2023/08/25 07:39:08;;;;;;;;;11.00;11.00;;;;;;;;5023458;28;45368;-75
2023/08/25 07:41:33;;;;;;;;;14.75;8.75;;;;;;;;5034513;28;45834;-75
2023/08/25 07:43:59;;;;;;;;;18.75;12.50;;;;;;;;5031410;28;46119;-76
2023/08/25 07:46:24;;;;;;;;;10.25;9.25;;;;;;;;5051820;28;46507;-77
2023/08/25 07:48:50;;;;;;;;;12.00;10.50;;;;;;;;5054024;28;45955;-77
2023/08/25 07:51:16;;;;;;;;;14.75;13.25;;;;;;;;5032609;28;45767;-75
2023/08/25 07:53:41;;;;;;;;;13.25;11.75;;;;;;;;5054922;28;45643;-75
2023/08/25 07:56:07;;;;;;;;;15.75;15.75;;;;;;;;5036165;28;47164;-81
2023/08/25 07:58:32;;;;;;;;;12.00;11.50;;;;;;;;5053471;28;45728;-80
2023/08/25 08:00:57;;;;;;;;;11.25;11.25;;;;;;;;5041154;27;45526;-81
2023/08/25 08:03:22;;;;;;;;;13.50;10.00;;;;;;;;5039232;28;47003;-82
2023/08/25 08:05:48;;;;;;;;;9.00;9.00;;;;;;;;5053604;28;46176;-82
2023/08/25 08:08:13;;;;;;;;;10.00;9.25;;;;;;;;5051725;28;45718;-81
2023/08/25 08:10:38;;;;;;;;;8.50;8.50;;;;;;;;5051962;28;45711;-81
2023/08/25 08:13:04;;;;;;;;;17.50;13.50;;;;;;;;5053832;28;45440;-84
2023/08/25 08:15:30;;;;;;;;;5.00;4.00;;;;;;;;5052794;28;45818;-80
2023/08/25 08:17:55;;;;;;;;;6.00;5.00;;;;;;;;5033801;28;46082;-82
2023/08/25 08:20:21;;;;;;;;;5.00;5.00;;;;;;;;5037109;28;45506;-82
2023/08/25 08:22:46;;;;;;;;;4.00;4.00;;;;;;;;5033825;28;46404;-81
2023/08/25 08:25:13;;;;;;;;;5.50;5.25;;;;;;;;5035819;28;46194;-81
2023/08/25 08:27:39;;;;;;;;;4.50;3.75;;;;;;;;5054144;28;45615;-81
2023/08/25 08:30:05;;;;;;;;;5.00;3.25;;;;;;;;5045931;28;44944;-83
2023/08/25 08:32:30;;;;;;;;;3.00;2.00;;;;;;;;5067164;28;45469;-81
2023/08/25 08:34:56;;;;;;;;;4.25;3.00;;;;;;;;5048348;28;45480;-80
2023/08/25 08:37:22;;;;;;;;;2.00;2.00;;;;;;;;5036464;28;45756;-80
2023/08/25 08:39:47;;;;;;;;;3.00;2.25;;;;;;;;5046666;28;45721;-80
2023/08/25 08:42:13;;;;;;;;;3.25;3.00;;;;;;;;5039462;28;45537;-80
2023/08/25 08:44:41;;;;;;;;;4.00;2.25;;;;;;;;5050569;28;45397;-81
2023/08/25 08:47:06;;;;;;;;;3.00;3.00;;;;;;;;5028914;28;45655;-79
2023/08/25 08:49:33;;;;;;;;;1.25;1.25;;;;;;;;5051547;28;45463;-80
2023/08/25 08:51:58;;;;;;;;;2.25;1.75;;;;;;;;5052431;28;45666;-82
2023/08/25 08:54:27;;;;;;;;;1.50;1.50;;;;;;;;5052422;28;45845;-82
2023/08/25 08:56:53;;;;;;;;;3.80;3.80;;;;;;;;5051932;28;45710;-80
2023/08/25 08:59:18;;;;;;;;;3.00;2.25;;;;;;;;5052210;28;45790;-81
2023/08/25 09:01:44;;;;;;;;;5.00;5.00;;;;;;;;5034656;28;47354;-79
2023/08/25 09:04:09;;;;;;;;;2.00;2.00;;;;;;;;5021995;28;48136;-82
2023/08/25 09:06:36;;;;;;;;;3.75;2.00;;;;;;;;5028473;28;45623;-82
2023/08/25 09:09:04;;;;;;;;;2.00;2.00;;;;;;;;5055227;28;45643;-80
2023/08/25 09:11:32;;;;;;;;;2.00;2.00;;;;;;;;5038872;28;45534;-81
2023/08/25 09:14:03;;;;;;;;;2.00;2.00;;;;;;;;5032592;28;47485;-81
2023/08/25 09:16:29;;;;;;;;;2.60;2.60;;;;;;;;5028640;28;46234;-82
2023/08/25 09:18:57;;;;;;;;;1.25;1.25;;;;;;;;5053093;28;45555;-84
2023/08/25 09:40:29;;;;;;;;;3.20;3.20;;;;;;;;4988285;28;46140;-88
2023/08/25 09:49:53;;;;;;;;;5.00;4.25;;;;;;;;4994699;28;45426;-84
2023/08/25 09:52:19;;;;;;;;;4.20;4.20;;;;;;;;4992730;28;45775;-82
2023/08/25 09:54:44;;;;;;;;;4.00;4.00;;;;;;;;5013935;28;45755;-80
2023/08/25 09:57:10;;;;;;;;;5.25;3.50;;;;;;;;5031983;28;45565;-78
2023/08/25 09:59:35;;;;;;;;;6.25;3.75;;;;;;;;5055489;28;45684;-80
2023/08/25 10:02:01;;;;;;;;;5.25;5.25;;;;;;;;5063689;28;45459;-76
2023/08/25 10:04:26;;;;;;;;;5.50;3.75;;;;;;;;5056219;28;45567;-79
2023/08/25 10:06:52;;;;;;;;;4.75;3.50;;;;;;;;5055986;28;45789;-78
2023/08/25 10:09:18;;;;;;;;;6.00;3.75;;;;;;;;5036873;28;48573;-78
2023/08/25 10:11:44;;;;;;;;;4.75;3.00;;;;;;;;5036186;28;45481;-79
2023/08/25 10:14:11;;;;;;;;;3.50;2.25;;;;;;;;5054795;28;45732;-79
2023/08/25 10:16:39;;;;;;;;;4.50;3.50;;;;;;;;5029660;28;46150;-78
2023/08/25 10:19:06;;;;;;;;;2.00;2.00;;;;;;;;5049363;28;46253;-80
2023/08/25 10:21:52;;;;;;;;;7.00;5.00;;;;;;;;5003424;28;45280;-78
2023/08/25 10:24:25;;;;;;;;;7.00;4.75;;;;;;;;5026319;28;45805;-78
2023/08/25 10:26:51;;;;;;;;;5.00;4.00;;;;;;;;5041679;28;45936;-77
2023/08/25 10:29:17;;;;;;;;;3.25;3.25;;;;;;;;5030522;28;46034;-76
2023/08/25 10:31:51;;;;;;;;;3.00;3.00;;;;;;;;5044757;28;45603;-77
2023/08/25 10:34:35;;;;;;;;;4.00;3.25;;;;;;;;5031920;28;45599;-76
2023/08/25 10:37:10;;;;;;;;;3.00;3.00;;;;;;;;5048085;28;45925;-78
2023/08/25 10:39:48;;;;;;;;;4.50;2.75;;;;;;;;5024517;28;45931;-78
2023/08/25 10:42:17;;;;;;;;;2.80;2.80;;;;;;;;5030516;28;45085;-78
2023/08/25 10:44:43;;;;;;;;;8.25;7.25;;;;;;;;5033146;28;45927;-80
2023/08/25 10:47:08;;;;;;;;;2.25;2.25;;;;;;;;5022968;28;46005;-79
2023/08/25 10:49:38;;;;;;;;;4.00;2.50;;;;;;;;5029189;28;47258;-85
2023/08/25 10:52:18;;;;;;;;;2.00;2.00;;;;;;;;5040267;28;45585;-83
2023/08/25 10:54:48;;;;;;;;;3.00;3.00;;;;;;;;5040995;28;45474;-87
2023/08/25 10:57:43;;;;;;;;;4.50;3.75;;;;;;;;5051055;28;45896;-90
2023/08/25 11:00:50;;;;;;;;;4.75;3.75;;;;;;;;5044066;28;45598;-89
2023/08/25 11:03:46;;;;;;;;;3.75;3.50;;;;;;;;4962716;28;45495;-88
2023/08/25 11:16:01;;;;;;;;;8.00;8.00;;;;;;;;5015795;28;45567;-80
2023/08/25 11:22:13;;;;;;;;;;;;;;;;;;;;;
2023/08/25 11:28:46;;;;;;;;;7.25;7.25;;;;;;;;4928444;28;45488;-84
2023/08/25 11:31:41;;;;;;;;;9.75;7.50;;;;;;;;4938398;28;45979;-86
2023/08/25 11:34:07;;;;;;;;;8.50;8.25;;;;;;;;4951363;28;45591;-81
2023/08/25 11:36:33;;;;;;;;;8.75;6.25;;;;;;;;4955746;28;46789;-81
2023/08/25 11:39:11;;;;;;;;;19.00;15.50;;;;;;;;4997719;28;45957;-83
2023/08/25 11:41:42;;;;;;;;;6.75;6.00;;;;;;;;4988933;28;46031;-81
2023/08/25 11:44:10;;;;;;;;;7.75;6.25;;;;;;;;5028667;28;46889;-82
2023/08/25 11:50:31;;;;;;;;;7.60;6.60;;;;;;;;5015804;28;45886;-82
2023/08/25 11:56:17;;;;;;;;;5.50;4.25;;;;;;;;4934912;28;45883;-79
2023/08/25 11:58:42;;;;;;;;;7.00;7.00;;;;;;;;5049023;28;45511;-78
2023/08/25 12:01:10;;;;;;;;;6.75;6.75;;;;;;;;5035063;28;45828;-82
2023/08/25 12:03:36;;;;;;;;;5.00;5.00;;;;;;;;5046674;28;46720;-81
2023/08/25 12:06:10;;;;;;;;;7.25;7.25;;;;;;;;5032873;28;45955;-84
2023/08/25 12:08:37;;;;;;;;;8.00;6.50;;;;;;;;5046038;28;46076;-80
2023/08/25 12:11:04;;;;;;;;;8.00;7.50;;;;;;;;5048417;28;45520;-81
2023/08/25 12:13:31;;;;;;;;;7.50;7.00;;;;;;;;5029968;28;45807;-81
2023/08/25 12:15:57;;;;;;;;;8.75;7.00;;;;;;;;5050898;28;45745;-81
2023/08/25 12:18:23;;;;;;;;;10.00;7.50;;;;;;;;5036898;28;46498;-85
2023/08/25 12:20:50;;;;;;;;;7.75;7.75;;;;;;;;5027132;28;45447;-78
2023/08/25 12:23:17;;;;;;;;;7.75;7.75;;;;;;;;5053944;28;45379;-81
2023/08/25 12:25:43;;;;;;;;;9.25;8.00;;;;;;;;5037149;28;46653;-79
2023/08/25 12:28:09;;;;;;;;;10.75;10.75;;;;;;;;5024252;28;47892;-77
2023/08/25 12:30:34;;;;;;;;;9.00;9.00;;;;;;;;5031389;28;45484;-79
2023/08/25 12:32:59;;;;;;;;;9.50;7.25;;;;;;;;5041181;28;45965;-77
2023/08/25 12:35:24;;;;;;;;;6.25;6.25;;;;;;;;5037106;28;45717;-77
2023/08/25 12:37:51;;;;;;;;;11.50;9.75;;;;;;;;5031024;28;46061;-77
2023/08/25 12:40:20;;;;;;;;;10.50;10.50;;;;;;;;5018245;28;45781;-78
2023/08/25 12:42:53;;;;;;;;;10.00;10.00;;;;;;;;5053073;28;46136;-82
2023/08/25 12:45:22;;;;;;;;;14.00;11.00;;;;;;;;5047504;28;45600;-78
2023/08/25 12:47:48;;;;;;;;;11.25;10.25;;;;;;;;5052380;28;46178;-84
2023/08/25 12:50:14;;;;;;;;;10.75;9.25;;;;;;;;5044921;28;45797;-82
2023/08/25 12:52:39;;;;;;;;;11.50;10.50;;;;;;;;5028953;28;45527;-82
2023/08/25 12:55:10;;;;;;;;;12.25;11.75;;;;;;;;5034111;28;45780;-84
2023/08/25 12:57:35;;;;;;;;;12.00;9.25;;;;;;;;5051443;28;45502;-83
2023/08/25 13:00:02;;;;;;;;;9.75;8.50;;;;;;;;5026740;28;45645;-82
2023/08/25 13:02:28;;;;;;;;;8.00;8.00;;;;;;;;5030374;28;45800;-82
2023/08/25 13:04:53;;;;;;;;;7.75;6.75;;;;;;;;5021963;28;45980;-85
2023/08/25 13:07:20;;;;;;;;;9.50;8.25;;;;;;;;5047499;28;45325;-82
2023/08/25 13:09:45;;;;;;;;;7.00;6.00;;;;;;;;5029597;28;45619;-83
2023/08/25 13:12:10;;;;;;;;;6.00;6.00;;;;;;;;5027484;28;45832;-83
2023/08/25 13:14:36;;;;;;;;;7.25;5.50;;;;;;;;5039665;28;45404;-83
2023/08/25 13:17:01;;;;;;;;;5.00;4.25;;;;;;;;5048267;28;45878;-82
2023/08/25 13:19:27;;;;;;;;;6.25;6.25;;;;;;;;5035831;28;44978;-82
2023/08/25 13:21:52;;;;;;;;;7.00;4.00;;;;;;;;5040103;28;45706;-81
2023/08/25 13:24:18;;;;;;;;;5.25;4.25;;;;;;;;5056926;28;45505;-82
2023/08/25 13:26:43;;;;;;;;;6.50;5.00;;;;;;;;5053614;28;46076;-82
2023/08/25 13:29:10;;;;;;;;;5.50;5.50;;;;;;;;5051504;28;45921;-82
2023/08/25 13:31:35;;;;;;;;;5.00;5.00;;;;;;;;5051786;28;45787;-81
2023/08/25 13:34:01;;;;;;;;;3.75;3.75;;;;;;;;5049734;28;45578;-82
2023/08/25 13:36:26;;;;;;;;;4.25;3.25;;;;;;;;5031253;28;46898;-81
2023/08/25 13:38:52;;;;;;;;;3.25;3.25;;;;;;;;5034001;28;45684;-81
2023/08/25 13:41:17;;;;;;;;;2.25;2.25;;;;;;;;5032573;28;46008;-83
2023/08/25 13:43:42;;;;;;;;;6.00;4.75;;;;;;;;5048733;28;45930;-82
2023/08/25 13:46:07;;;;;;;;;4.75;4.75;;;;;;;;5047065;28;45517;-81
2023/08/25 13:48:33;;;;;;;;;4.00;4.00;;;;;;;;5044666;28;46068;-82
2023/08/25 13:50:58;;;;;;;;;5.00;4.00;;;;;;;;5032826;28;45807;-83
2023/08/25 13:53:24;;;;;;;;;6.75;4.00;;;;;;;;5027273;28;46110;-81
2023/08/25 13:55:49;;;;;;;;;4.75;4.75;;;;;;;;5026588;28;47600;-82
2023/08/25 13:58:15;;;;;;;;;4.50;4.00;;;;;;;;5036055;28;45480;-81
2023/08/25 14:00:40;;;;;;;;;4.00;2.25;;;;;;;;5032576;28;45572;-81
2023/08/25 14:03:06;;;;;;;;;4.50;4.00;;;;;;;;5031356;28;45725;-80
2023/08/25 14:05:31;;;;;;;;;5.25;3.25;;;;;;;;5025614;28;47087;-83
2023/08/25 14:07:57;;;;;;;;;0.25;0.25;;;;;;;;5032125;28;45588;-81
2023/08/25 14:10:25;;;;;;;;;5.00;4.00;;;;;;;;5055665;28;45602;-85
2023/08/25 14:12:51;;;;;;;;;3.50;3.00;;;;;;;;5051835;28;45564;-78
2023/08/25 14:15:17;;;;;;;;;3.50;3.50;;;;;;;;5041385;28;45767;-81
2023/08/25 14:17:42;;;;;;;;;4.25;3.00;;;;;;;;5033780;28;45416;-83
2023/08/25 14:20:08;;;;;;;;;5.00;5.00;;;;;;;;5051424;28;45683;-82
2023/08/25 14:22:34;;;;;;;;;6.75;4.25;;;;;;;;5036381;28;46031;-82
2023/08/25 14:24:59;;;;;;;;;6.00;4.25;;;;;;;;5037632;28;45805;-82
2023/08/25 14:27:25;;;;;;;;;5.25;3.50;;;;;;;;5055045;28;45887;-80
2023/08/25 14:29:50;;;;;;;;;4.25;4.25;;;;;;;;5045601;28;45655;-83
2023/08/25 14:32:15;;;;;;;;;3.25;3.25;;;;;;;;5060339;28;44820;-83
2023/08/25 14:34:41;;;;;;;;;3.75;3.75;;;;;;;;5033153;28;46901;-81
2023/08/25 14:37:06;;;;;;;;;5.00;3.00;;;;;;;;5035453;28;45897;-83
2023/08/25 14:39:37;;;;;;;;;5.25;4.00;;;;;;;;5032719;28;46687;-83
2023/08/25 14:42:03;;;;;;;;;3.50;3.50;;;;;;;;5026129;28;45772;-83
2023/08/25 14:44:29;;;;;;;;;4.25;4.00;;;;;;;;5031819;28;45576;-81
2023/08/25 14:46:54;;;;;;;;;3.75;3.25;;;;;;;;5034333;28;45952;-82
2023/08/25 14:49:20;;;;;;;;;2.50;2.25;;;;;;;;5046713;28;45681;-82
2023/08/25 14:51:45;;;;;;;;;9.50;5.00;;;;;;;;5025752;28;46311;-81
2023/08/25 14:54:10;;;;;;;;;5.25;5.00;;;;;;;;5033079;28;46122;-81
2023/08/25 14:56:36;;;;;;;;;5.25;5.25;;;;;;;;5044351;28;45931;-82
2023/08/25 14:59:02;;;;;;;;;4.00;4.00;;;;;;;;5022895;28;47123;-79
2023/08/25 15:01:27;;;;;;;;;3.25;3.25;;;;;;;;5024379;28;46104;-84
2023/08/25 15:03:53;;;;;;;;;4.75;4.00;;;;;;;;5033746;28;46997;-82
2023/08/25 15:06:18;;;;;;;;;4.00;4.00;;;;;;;;5054846;28;45474;-81
2023/08/25 15:08:43;;;;;;;;;3.00;2.75;;;;;;;;5041673;28;45575;-83
2023/08/25 15:11:08;;;;;;;;;3.50;3.00;;;;;;;;5030670;28;47104;-82
2023/08/25 15:13:34;;;;;;;;;3.50;3.50;;;;;;;;5052110;28;45211;-80
2023/08/25 15:15:59;;;;;;;;;8.00;4.00;;;;;;;;5034278;28;45543;-84
2023/08/25 15:18:25;;;;;;;;;3.50;2.25;;;;;;;;5056204;28;45960;-82